sensor_id;sensor_type;location;lat;lon;timestamp;P1;durP1;ratioP1;P2;durP2;ratioP2
65238;SDS011;51827;51.186;6.926;2023-04-19T00:00:23;3.23;;;2.30;;
65238;SDS011;51827;51.186;6.926;2023-04-19T00:01:23;3.15;;;2.30;;
65238;SDS011;51827;51.186;6.926;2023-04-19T00:02:24;2.97;;;2.30;;
65238;SDS011;51827;51.186;6.926;2023-04-19T00:03:24;3.40;;;2.37;;
65238;SDS011;51827;51.186;6.926;2023-04-19T00:04:24;2.57;;;2.13;;
65238;SDS011;51827;51.186;6.926;2023-04-19T00:05:24;2.70;;;2.30;;
65238;SDS011;51827;51.186;6.926;2023-04-19T00:06:25;2.73;;;2.17;;
65238;SDS011;51827;51.186;6.926;2023-04-19T00:07:25;3.10;;;2.30;;
65238;SDS011;51827;51.186;6.926;2023-04-19T00:08:25;2.80;;;2.17;;
65238;SDS011;51827;51.186;6.926;2023-04-19T00:09:25;2.93;;;2.10;;
65238;SDS011;51827;51.186;6.926;2023-04-19T00:10:26;3.00;;;2.10;;
65238;SDS011;51827;51.186;6.926;2023-04-19T00:11:26;3.07;;;2.10;;
65238;SDS011;51827;51.186;6.926;2023-04-19T00:12:26;3.30;;;2.40;;
65238;SDS011;51827;51.186;6.926;2023-04-19T00:13:26;3.03;;;2.43;;
65238;SDS011;51827;51.186;6.926;2023-04-19T00:14:27;3.07;;;2.23;;
65238;SDS011;51827;51.186;6.926;2023-04-19T00:15:27;2.50;;;2.10;;
65238;SDS011;51827;51.186;6.926;2023-04-19T00:16:27;2.77;;;2.20;;
65238;SDS011;51827;51.186;6.926;2023-04-19T00:17:27;2.90;;;2.17;;
65238;SDS011;51827;51.186;6.926;2023-04-19T00:18:28;2.70;;;1.97;;
65238;SDS011;51827;51.186;6.926;2023-04-19T00:19:28;3.00;;;2.07;;
65238;SDS011;51827;51.186;6.926;2023-04-19T00:20:28;3.03;;;2.20;;
65238;SDS011;51827;51.186;6.926;2023-04-19T00:21:28;2.63;;;2.03;;
65238;SDS011;51827;51.186;6.926;2023-04-19T00:22:29;3.60;;;2.37;;
65238;SDS011;51827;51.186;6.926;2023-04-19T00:23:29;3.10;;;2.40;;
65238;SDS011;51827;51.186;6.926;2023-04-19T00:24:29;2.93;;;2.30;;
65238;SDS011;51827;51.186;6.926;2023-04-19T00:25:30;3.33;;;2.17;;
65238;SDS011;51827;51.186;6.926;2023-04-19T00:26:30;4.27;;;2.30;;
65238;SDS011;51827;51.186;6.926;2023-04-19T00:27:30;4.90;;;2.40;;
65238;SDS011;51827;51.186;6.926;2023-04-19T00:28:32;3.03;;;2.27;;
65238;SDS011;51827;51.186;6.926;2023-04-19T00:29:32;5.03;;;2.30;;
65238;SDS011;51827;51.186;6.926;2023-04-19T00:30:32;5.10;;;2.63;;
65238;SDS011;51827;51.186;6.926;2023-04-19T00:31:33;3.20;;;2.20;;
65238;SDS011;51827;51.186;6.926;2023-04-19T00:32:33;2.73;;;2.10;;
65238;SDS011;51827;51.186;6.926;2023-04-19T00:33:33;2.80;;;2.10;;
65238;SDS011;51827;51.186;6.926;2023-04-19T00:34:33;2.67;;;2.30;;
65238;SDS011;51827;51.186;6.926;2023-04-19T00:35:34;3.00;;;2.20;;
65238;SDS011;51827;51.186;6.926;2023-04-19T00:36:34;4.43;;;2.40;;
65238;SDS011;51827;51.186;6.926;2023-04-19T00:37:34;2.70;;;2.10;;
65238;SDS011;51827;51.186;6.926;2023-04-19T00:38:34;3.20;;;2.37;;
65238;SDS011;51827;51.186;6.926;2023-04-19T00:39:35;2.90;;;2.30;;
65238;SDS011;51827;51.186;6.926;2023-04-19T00:40:36;2.80;;;2.08;;
65238;SDS011;51827;51.186;6.926;2023-04-19T00:41:37;3.10;;;2.10;;
65238;SDS011;51827;51.186;6.926;2023-04-19T00:42:37;2.63;;;2.13;;
65238;SDS011;51827;51.186;6.926;2023-04-19T00:43:37;3.00;;;2.20;;
65238;SDS011;51827;51.186;6.926;2023-04-19T00:44:37;3.23;;;2.10;;
65238;SDS011;51827;51.186;6.926;2023-04-19T00:45:38;2.60;;;2.20;;
65238;SDS011;51827;51.186;6.926;2023-04-19T00:46:38;2.67;;;2.20;;
65238;SDS011;51827;51.186;6.926;2023-04-19T00:47:39;3.00;;;2.20;;
65238;SDS011;51827;51.186;6.926;2023-04-19T00:48:39;2.95;;;1.98;;
65238;SDS011;51827;51.186;6.926;2023-04-19T00:49:40;3.17;;;2.28;;
65238;SDS011;51827;51.186;6.926;2023-04-19T00:50:41;2.80;;;2.23;;
65238;SDS011;51827;51.186;6.926;2023-04-19T00:51:43;2.72;;;2.10;;
65238;SDS011;51827;51.186;6.926;2023-04-19T00:52:43;2.75;;;2.00;;
65238;SDS011;51827;51.186;6.926;2023-04-19T00:53:45;2.80;;;2.20;;
65238;SDS011;51827;51.186;6.926;2023-04-19T00:54:45;3.20;;;2.28;;
65238;SDS011;51827;51.186;6.926;2023-04-19T00:55:46;2.70;;;2.13;;
65238;SDS011;51827;51.186;6.926;2023-04-19T00:57:47;3.23;;;2.20;;
65238;SDS011;51827;51.186;6.926;2023-04-19T00:58:47;3.57;;;2.10;;
65238;SDS011;51827;51.186;6.926;2023-04-19T00:59:48;5.10;;;2.10;;
65238;SDS011;51827;51.186;6.926;2023-04-19T01:00:48;2.80;;;2.33;;
65238;SDS011;51827;51.186;6.926;2023-04-19T01:01:48;3.67;;;2.07;;
65238;SDS011;51827;51.186;6.926;2023-04-19T01:02:49;2.80;;;2.00;;
65238;SDS011;51827;51.186;6.926;2023-04-19T01:03:49;3.20;;;2.60;;
65238;SDS011;51827;51.186;6.926;2023-04-19T01:04:49;3.30;;;2.47;;
65238;SDS011;51827;51.186;6.926;2023-04-19T01:05:50;2.72;;;2.13;;
65238;SDS011;51827;51.186;6.926;2023-04-19T01:06:50;3.07;;;2.20;;
65238;SDS011;51827;51.186;6.926;2023-04-19T01:07:51;3.73;;;2.10;;
65238;SDS011;51827;51.186;6.926;2023-04-19T01:08:51;4.33;;;2.50;;
65238;SDS011;51827;51.186;6.926;2023-04-19T01:09:51;3.13;;;2.20;;
65238;SDS011;51827;51.186;6.926;2023-04-19T01:10:51;3.53;;;2.30;;
65238;SDS011;51827;51.186;6.926;2023-04-19T01:11:52;2.90;;;2.10;;
65238;SDS011;51827;51.186;6.926;2023-04-19T01:12:52;3.30;;;2.20;;
65238;SDS011;51827;51.186;6.926;2023-04-19T01:13:53;3.43;;;2.20;;
65238;SDS011;51827;51.186;6.926;2023-04-19T01:14:54;2.97;;;2.20;;
65238;SDS011;51827;51.186;6.926;2023-04-19T01:15:54;2.60;;;2.17;;
65238;SDS011;51827;51.186;6.926;2023-04-19T01:16:56;3.45;;;2.40;;
65238;SDS011;51827;51.186;6.926;2023-04-19T01:17:56;3.13;;;2.47;;
65238;SDS011;51827;51.186;6.926;2023-04-19T01:18:57;2.43;;;2.10;;
65238;SDS011;51827;51.186;6.926;2023-04-19T01:20:00;2.80;;;2.17;;
65238;SDS011;51827;51.186;6.926;2023-04-19T01:21:02;2.88;;;2.25;;
65238;SDS011;51827;51.186;6.926;2023-04-19T01:22:02;3.25;;;2.30;;
65238;SDS011;51827;51.186;6.926;2023-04-19T01:23:03;4.95;;;2.53;;
65238;SDS011;51827;51.186;6.926;2023-04-19T01:24:03;3.80;;;2.33;;
65238;SDS011;51827;51.186;6.926;2023-04-19T01:25:04;2.95;;;2.10;;
65238;SDS011;51827;51.186;6.926;2023-04-19T01:26:05;4.20;;;2.40;;
65238;SDS011;51827;51.186;6.926;2023-04-19T01:27:05;3.22;;;2.30;;
65238;SDS011;51827;51.186;6.926;2023-04-19T01:28:05;3.40;;;2.30;;
65238;SDS011;51827;51.186;6.926;2023-04-19T01:29:06;2.70;;;2.20;;
65238;SDS011;51827;51.186;6.926;2023-04-19T01:30:06;3.03;;;2.30;;
65238;SDS011;51827;51.186;6.926;2023-04-19T01:31:07;3.22;;;2.42;;
65238;SDS011;51827;51.186;6.926;2023-04-19T01:32:07;2.80;;;2.07;;
65238;SDS011;51827;51.186;6.926;2023-04-19T01:33:07;4.03;;;2.33;;
65238;SDS011;51827;51.186;6.926;2023-04-19T01:34:08;3.73;;;2.77;;
65238;SDS011;51827;51.186;6.926;2023-04-19T01:35:08;3.03;;;2.20;;
65238;SDS011;51827;51.186;6.926;2023-04-19T01:36:08;3.70;;;2.50;;
65238;SDS011;51827;51.186;6.926;2023-04-19T01:37:08;4.47;;;2.40;;
65238;SDS011;51827;51.186;6.926;2023-04-19T01:38:09;3.13;;;2.23;;
65238;SDS011;51827;51.186;6.926;2023-04-19T01:39:09;3.33;;;2.40;;
65238;SDS011;51827;51.186;6.926;2023-04-19T01:40:09;3.53;;;2.30;;
65238;SDS011;51827;51.186;6.926;2023-04-19T01:41:10;3.20;;;2.40;;
65238;SDS011;51827;51.186;6.926;2023-04-19T01:42:10;2.87;;;2.30;;
65238;SDS011;51827;51.186;6.926;2023-04-19T01:43:15;2.90;;;2.20;;
65238;SDS011;51827;51.186;6.926;2023-04-19T01:44:16;3.08;;;2.20;;
65238;SDS011;51827;51.186;6.926;2023-04-19T01:45:17;2.93;;;2.30;;
65238;SDS011;51827;51.186;6.926;2023-04-19T01:46:17;2.90;;;2.30;;
65238;SDS011;51827;51.186;6.926;2023-04-19T01:47:17;2.70;;;2.20;;
65238;SDS011;51827;51.186;6.926;2023-04-19T01:48:17;3.03;;;2.40;;
65238;SDS011;51827;51.186;6.926;2023-04-19T01:49:18;3.50;;;2.40;;
65238;SDS011;51827;51.186;6.926;2023-04-19T01:50:18;3.17;;;2.03;;
65238;SDS011;51827;51.186;6.926;2023-04-19T01:51:18;3.73;;;2.50;;
65238;SDS011;51827;51.186;6.926;2023-04-19T01:52:18;3.57;;;2.33;;
65238;SDS011;51827;51.186;6.926;2023-04-19T01:53:19;2.97;;;2.17;;
65238;SDS011;51827;51.186;6.926;2023-04-19T01:54:19;3.10;;;2.40;;
65238;SDS011;51827;51.186;6.926;2023-04-19T01:55:19;3.03;;;2.17;;
65238;SDS011;51827;51.186;6.926;2023-04-19T01:56:19;3.23;;;2.30;;
65238;SDS011;51827;51.186;6.926;2023-04-19T01:57:20;2.60;;;2.13;;
65238;SDS011;51827;51.186;6.926;2023-04-19T01:58:20;3.47;;;2.37;;
65238;SDS011;51827;51.186;6.926;2023-04-19T01:59:20;2.73;;;1.97;;
65238;SDS011;51827;51.186;6.926;2023-04-19T02:00:21;2.80;;;2.10;;
65238;SDS011;51827;51.186;6.926;2023-04-19T02:01:21;2.92;;;2.05;;
65238;SDS011;51827;51.186;6.926;2023-04-19T02:02:22;3.03;;;2.50;;
65238;SDS011;51827;51.186;6.926;2023-04-19T02:03:22;3.87;;;2.70;;
65238;SDS011;51827;51.186;6.926;2023-04-19T02:04:22;2.53;;;1.90;;
65238;SDS011;51827;51.186;6.926;2023-04-19T02:05:22;2.90;;;2.23;;
65238;SDS011;51827;51.186;6.926;2023-04-19T02:06:23;3.17;;;2.37;;
65238;SDS011;51827;51.186;6.926;2023-04-19T02:07:23;2.63;;;2.10;;
65238;SDS011;51827;51.186;6.926;2023-04-19T02:08:23;3.40;;;2.30;;
65238;SDS011;51827;51.186;6.926;2023-04-19T02:09:23;3.00;;;2.07;;
65238;SDS011;51827;51.186;6.926;2023-04-19T02:10:24;2.70;;;2.10;;
65238;SDS011;51827;51.186;6.926;2023-04-19T02:11:24;3.17;;;2.20;;
65238;SDS011;51827;51.186;6.926;2023-04-19T02:12:27;2.80;;;2.22;;
65238;SDS011;51827;51.186;6.926;2023-04-19T02:13:28;3.17;;;2.30;;
65238;SDS011;51827;51.186;6.926;2023-04-19T02:14:29;3.17;;;2.33;;
65238;SDS011;51827;51.186;6.926;2023-04-19T02:15:29;3.23;;;2.10;;
65238;SDS011;51827;51.186;6.926;2023-04-19T02:16:29;2.77;;;2.17;;
65238;SDS011;51827;51.186;6.926;2023-04-19T02:17:29;3.73;;;2.60;;
65238;SDS011;51827;51.186;6.926;2023-04-19T02:18:30;3.13;;;2.40;;
65238;SDS011;51827;51.186;6.926;2023-04-19T02:19:30;3.28;;;2.30;;
65238;SDS011;51827;51.186;6.926;2023-04-19T02:20:31;2.90;;;2.30;;
65238;SDS011;51827;51.186;6.926;2023-04-19T02:21:31;3.17;;;2.23;;
65238;SDS011;51827;51.186;6.926;2023-04-19T02:22:31;3.23;;;2.20;;
65238;SDS011;51827;51.186;6.926;2023-04-19T02:23:31;2.83;;;2.13;;
65238;SDS011;51827;51.186;6.926;2023-04-19T02:24:32;5.37;;;2.33;;
65238;SDS011;51827;51.186;6.926;2023-04-19T02:25:32;2.93;;;2.20;;
65238;SDS011;51827;51.186;6.926;2023-04-19T02:26:32;2.70;;;2.10;;
65238;SDS011;51827;51.186;6.926;2023-04-19T02:27:32;2.77;;;2.30;;
65238;SDS011;51827;51.186;6.926;2023-04-19T02:28:33;3.23;;;2.40;;
65238;SDS011;51827;51.186;6.926;2023-04-19T02:29:33;2.90;;;2.20;;
65238;SDS011;51827;51.186;6.926;2023-04-19T02:30:33;3.53;;;2.37;;
65238;SDS011;51827;51.186;6.926;2023-04-19T02:31:35;2.50;;;2.17;;
65238;SDS011;51827;51.186;6.926;2023-04-19T02:32:36;2.93;;;2.10;;
65238;SDS011;51827;51.186;6.926;2023-04-19T02:33:36;3.27;;;2.20;;
65238;SDS011;51827;51.186;6.926;2023-04-19T02:34:36;2.47;;;2.07;;
65238;SDS011;51827;51.186;6.926;2023-04-19T02:35:37;2.60;;;2.00;;
65238;SDS011;51827;51.186;6.926;2023-04-19T02:36:37;2.95;;;2.30;;
65238;SDS011;51827;51.186;6.926;2023-04-19T02:37:37;2.57;;;1.90;;
65238;SDS011;51827;51.186;6.926;2023-04-19T02:38:38;2.93;;;2.30;;
65238;SDS011;51827;51.186;6.926;2023-04-19T02:39:38;3.23;;;2.30;;
65238;SDS011;51827;51.186;6.926;2023-04-19T02:40:38;2.80;;;2.10;;
65238;SDS011;51827;51.186;6.926;2023-04-19T02:41:38;3.00;;;2.33;;
65238;SDS011;51827;51.186;6.926;2023-04-19T02:42:39;3.10;;;2.20;;
65238;SDS011;51827;51.186;6.926;2023-04-19T02:43:39;2.93;;;2.20;;
65238;SDS011;51827;51.186;6.926;2023-04-19T02:44:39;2.83;;;2.20;;
65238;SDS011;51827;51.186;6.926;2023-04-19T02:45:39;3.20;;;2.30;;
65238;SDS011;51827;51.186;6.926;2023-04-19T02:46:39;3.07;;;2.20;;
65238;SDS011;51827;51.186;6.926;2023-04-19T02:47:40;3.30;;;2.37;;
65238;SDS011;51827;51.186;6.926;2023-04-19T02:48:40;2.60;;;2.07;;
65238;SDS011;51827;51.186;6.926;2023-04-19T02:49:40;2.90;;;2.00;;
65238;SDS011;51827;51.186;6.926;2023-04-19T02:50:40;3.03;;;2.30;;
65238;SDS011;51827;51.186;6.926;2023-04-19T02:51:41;3.20;;;2.10;;
65238;SDS011;51827;51.186;6.926;2023-04-19T02:52:41;2.93;;;2.30;;
65238;SDS011;51827;51.186;6.926;2023-04-19T02:53:41;3.33;;;2.50;;
65238;SDS011;51827;51.186;6.926;2023-04-19T02:54:42;2.70;;;2.10;;
65238;SDS011;51827;51.186;6.926;2023-04-19T02:55:42;2.87;;;2.20;;
65238;SDS011;51827;51.186;6.926;2023-04-19T02:56:42;3.37;;;2.07;;
65238;SDS011;51827;51.186;6.926;2023-04-19T02:57:43;3.20;;;2.03;;
65238;SDS011;51827;51.186;6.926;2023-04-19T02:58:43;3.00;;;2.03;;
65238;SDS011;51827;51.186;6.926;2023-04-19T02:59:43;2.72;;;2.30;;
65238;SDS011;51827;51.186;6.926;2023-04-19T03:00:44;2.80;;;2.23;;
65238;SDS011;51827;51.186;6.926;2023-04-19T03:01:44;2.90;;;2.40;;
65238;SDS011;51827;51.186;6.926;2023-04-19T03:02:44;2.80;;;2.40;;
65238;SDS011;51827;51.186;6.926;2023-04-19T03:03:44;2.60;;;2.00;;
65238;SDS011;51827;51.186;6.926;2023-04-19T03:04:45;3.47;;;2.20;;
65238;SDS011;51827;51.186;6.926;2023-04-19T03:05:45;2.20;;;1.93;;
65238;SDS011;51827;51.186;6.926;2023-04-19T03:06:45;3.77;;;2.07;;
65238;SDS011;51827;51.186;6.926;2023-04-19T03:07:46;3.20;;;2.40;;
65238;SDS011;51827;51.186;6.926;2023-04-19T03:08:46;3.17;;;2.10;;
65238;SDS011;51827;51.186;6.926;2023-04-19T03:09:46;2.57;;;2.20;;
65238;SDS011;51827;51.186;6.926;2023-04-19T03:10:46;2.77;;;2.20;;
65238;SDS011;51827;51.186;6.926;2023-04-19T03:11:46;3.07;;;2.33;;
65238;SDS011;51827;51.186;6.926;2023-04-19T03:12:47;3.07;;;2.33;;
65238;SDS011;51827;51.186;6.926;2023-04-19T03:13:47;2.67;;;2.20;;
65238;SDS011;51827;51.186;6.926;2023-04-19T03:14:47;3.03;;;2.20;;
65238;SDS011;51827;51.186;6.926;2023-04-19T03:15:47;3.40;;;2.10;;
65238;SDS011;51827;51.186;6.926;2023-04-19T03:16:48;3.23;;;2.40;;
65238;SDS011;51827;51.186;6.926;2023-04-19T03:17:48;2.80;;;2.00;;
65238;SDS011;51827;51.186;6.926;2023-04-19T03:18:48;3.23;;;2.37;;
65238;SDS011;51827;51.186;6.926;2023-04-19T03:19:48;2.77;;;2.20;;
65238;SDS011;51827;51.186;6.926;2023-04-19T03:20:49;3.00;;;2.33;;
65238;SDS011;51827;51.186;6.926;2023-04-19T03:21:49;2.90;;;2.13;;
65238;SDS011;51827;51.186;6.926;2023-04-19T03:22:49;3.00;;;2.33;;
65238;SDS011;51827;51.186;6.926;2023-04-19T03:23:49;3.43;;;2.30;;
65238;SDS011;51827;51.186;6.926;2023-04-19T03:24:50;3.20;;;2.33;;
65238;SDS011;51827;51.186;6.926;2023-04-19T03:25:50;3.37;;;2.30;;
65238;SDS011;51827;51.186;6.926;2023-04-19T03:26:50;3.00;;;2.33;;
65238;SDS011;51827;51.186;6.926;2023-04-19T03:27:50;3.30;;;2.17;;
65238;SDS011;51827;51.186;6.926;2023-04-19T03:28:51;3.50;;;2.03;;
65238;SDS011;51827;51.186;6.926;2023-04-19T03:29:51;3.42;;;2.30;;
65238;SDS011;51827;51.186;6.926;2023-04-19T03:30:52;3.87;;;2.50;;
65238;SDS011;51827;51.186;6.926;2023-04-19T03:31:52;2.97;;;2.00;;
65238;SDS011;51827;51.186;6.926;2023-04-19T03:32:52;2.60;;;2.20;;
65238;SDS011;51827;51.186;6.926;2023-04-19T03:33:52;3.67;;;2.20;;
65238;SDS011;51827;51.186;6.926;2023-04-19T03:34:53;3.40;;;2.10;;
65238;SDS011;51827;51.186;6.926;2023-04-19T03:35:53;2.80;;;2.10;;
65238;SDS011;51827;51.186;6.926;2023-04-19T03:36:53;2.87;;;2.20;;
65238;SDS011;51827;51.186;6.926;2023-04-19T03:37:54;2.78;;;2.30;;
65238;SDS011;51827;51.186;6.926;2023-04-19T03:38:54;3.00;;;2.30;;
65238;SDS011;51827;51.186;6.926;2023-04-19T03:39:54;2.57;;;2.10;;
65238;SDS011;51827;51.186;6.926;2023-04-19T03:40:54;2.63;;;2.20;;
65238;SDS011;51827;51.186;6.926;2023-04-19T03:41:55;3.03;;;2.20;;
65238;SDS011;51827;51.186;6.926;2023-04-19T03:42:55;3.20;;;2.13;;
65238;SDS011;51827;51.186;6.926;2023-04-19T03:43:55;2.93;;;2.20;;
65238;SDS011;51827;51.186;6.926;2023-04-19T03:44:55;2.97;;;2.20;;
65238;SDS011;51827;51.186;6.926;2023-04-19T03:45:56;2.40;;;2.00;;
65238;SDS011;51827;51.186;6.926;2023-04-19T03:46:56;2.73;;;2.17;;
65238;SDS011;51827;51.186;6.926;2023-04-19T03:47:56;3.07;;;2.30;;
65238;SDS011;51827;51.186;6.926;2023-04-19T03:48:57;2.97;;;2.37;;
65238;SDS011;51827;51.186;6.926;2023-04-19T03:49:57;2.88;;;2.33;;
65238;SDS011;51827;51.186;6.926;2023-04-19T03:50:57;2.90;;;2.20;;
65238;SDS011;51827;51.186;6.926;2023-04-19T03:51:57;3.17;;;2.23;;
65238;SDS011;51827;51.186;6.926;2023-04-19T03:52:58;2.80;;;2.10;;
65238;SDS011;51827;51.186;6.926;2023-04-19T03:53:58;2.80;;;2.00;;
65238;SDS011;51827;51.186;6.926;2023-04-19T03:54:59;2.97;;;2.15;;
65238;SDS011;51827;51.186;6.926;2023-04-19T03:55:59;3.23;;;2.40;;
65238;SDS011;51827;51.186;6.926;2023-04-19T03:56:59;3.23;;;2.57;;
65238;SDS011;51827;51.186;6.926;2023-04-19T03:57:59;3.17;;;2.27;;
65238;SDS011;51827;51.186;6.926;2023-04-19T03:59:00;2.80;;;2.20;;
65238;SDS011;51827;51.186;6.926;2023-04-19T04:00:00;3.13;;;2.20;;
65238;SDS011;51827;51.186;6.926;2023-04-19T04:01:00;3.17;;;2.27;;
65238;SDS011;51827;51.186;6.926;2023-04-19T04:02:00;4.53;;;2.50;;
65238;SDS011;51827;51.186;6.926;2023-04-19T04:03:01;2.93;;;2.30;;
65238;SDS011;51827;51.186;6.926;2023-04-19T04:04:01;3.13;;;2.20;;
65238;SDS011;51827;51.186;6.926;2023-04-19T04:05:01;4.23;;;2.40;;
65238;SDS011;51827;51.186;6.926;2023-04-19T04:06:01;5.00;;;2.43;;
65238;SDS011;51827;51.186;6.926;2023-04-19T04:07:01;6.27;;;2.30;;
65238;SDS011;51827;51.186;6.926;2023-04-19T04:08:02;3.67;;;2.20;;
65238;SDS011;51827;51.186;6.926;2023-04-19T04:09:02;3.30;;;2.30;;
65238;SDS011;51827;51.186;6.926;2023-04-19T04:10:03;2.88;;;2.42;;
65238;SDS011;51827;51.186;6.926;2023-04-19T04:11:04;3.08;;;2.47;;
65238;SDS011;51827;51.186;6.926;2023-04-19T04:12:04;2.87;;;2.17;;
65238;SDS011;51827;51.186;6.926;2023-04-19T04:13:04;6.05;;;2.60;;
65238;SDS011;51827;51.186;6.926;2023-04-19T04:14:05;6.17;;;2.50;;
65238;SDS011;51827;51.186;6.926;2023-04-19T04:15:05;3.15;;;2.20;;
65238;SDS011;51827;51.186;6.926;2023-04-19T04:16:06;5.00;;;2.38;;
65238;SDS011;51827;51.186;6.926;2023-04-19T04:17:06;4.43;;;2.63;;
65238;SDS011;51827;51.186;6.926;2023-04-19T04:18:06;3.10;;;2.27;;
65238;SDS011;51827;51.186;6.926;2023-04-19T04:19:07;3.90;;;2.70;;
65238;SDS011;51827;51.186;6.926;2023-04-19T04:20:07;3.37;;;2.00;;
65238;SDS011;51827;51.186;6.926;2023-04-19T04:21:08;4.97;;;3.10;;
65238;SDS011;51827;51.186;6.926;2023-04-19T04:22:08;5.37;;;3.33;;
65238;SDS011;51827;51.186;6.926;2023-04-19T04:23:08;7.37;;;3.70;;
65238;SDS011;51827;51.186;6.926;2023-04-19T04:24:08;5.10;;;3.57;;
65238;SDS011;51827;51.186;6.926;2023-04-19T04:25:09;5.40;;;3.47;;
65238;SDS011;51827;51.186;6.926;2023-04-19T04:26:09;6.13;;;3.00;;
65238;SDS011;51827;51.186;6.926;2023-04-19T04:27:09;5.37;;;3.60;;
65238;SDS011;51827;51.186;6.926;2023-04-19T04:28:10;5.95;;;3.10;;
65238;SDS011;51827;51.186;6.926;2023-04-19T04:29:10;5.70;;;3.20;;
65238;SDS011;51827;51.186;6.926;2023-04-19T04:30:10;5.50;;;3.07;;
65238;SDS011;51827;51.186;6.926;2023-04-19T04:31:11;7.40;;;3.67;;
65238;SDS011;51827;51.186;6.926;2023-04-19T04:32:11;11.87;;;3.67;;
65238;SDS011;51827;51.186;6.926;2023-04-19T04:33:11;7.97;;;3.20;;
65238;SDS011;51827;51.186;6.926;2023-04-19T04:34:12;4.93;;;3.33;;
65238;SDS011;51827;51.186;6.926;2023-04-19T04:35:12;4.70;;;3.30;;
65238;SDS011;51827;51.186;6.926;2023-04-19T04:36:12;5.23;;;3.27;;
65238;SDS011;51827;51.186;6.926;2023-04-19T04:37:12;8.27;;;3.28;;
65238;SDS011;51827;51.186;6.926;2023-04-19T04:38:13;6.90;;;3.27;;
65238;SDS011;51827;51.186;6.926;2023-04-19T04:39:13;4.23;;;2.90;;
65238;SDS011;51827;51.186;6.926;2023-04-19T04:40:13;13.63;;;3.30;;
65238;SDS011;51827;51.186;6.926;2023-04-19T04:41:14;5.68;;;3.17;;
65238;SDS011;51827;51.186;6.926;2023-04-19T04:42:14;7.43;;;3.40;;
65238;SDS011;51827;51.186;6.926;2023-04-19T04:43:14;6.77;;;3.27;;
65238;SDS011;51827;51.186;6.926;2023-04-19T04:44:14;4.97;;;2.93;;
65238;SDS011;51827;51.186;6.926;2023-04-19T04:45:15;5.63;;;3.23;;
65238;SDS011;51827;51.186;6.926;2023-04-19T04:46:15;5.03;;;3.00;;
65238;SDS011;51827;51.186;6.926;2023-04-19T04:47:16;6.90;;;3.00;;
65238;SDS011;51827;51.186;6.926;2023-04-19T04:48:16;5.05;;;3.10;;
65238;SDS011;51827;51.186;6.926;2023-04-19T04:49:16;7.95;;;3.20;;
65238;SDS011;51827;51.186;6.926;2023-04-19T04:50:17;10.13;;;2.93;;
65238;SDS011;51827;51.186;6.926;2023-04-19T04:51:17;7.93;;;2.80;;
65238;SDS011;51827;51.186;6.926;2023-04-19T04:52:18;7.50;;;2.80;;
65238;SDS011;51827;51.186;6.926;2023-04-19T04:53:18;5.43;;;2.70;;
65238;SDS011;51827;51.186;6.926;2023-04-19T04:54:18;5.60;;;2.63;;
65238;SDS011;51827;51.186;6.926;2023-04-19T04:55:18;8.17;;;2.70;;
65238;SDS011;51827;51.186;6.926;2023-04-19T04:56:19;8.13;;;3.07;;
65238;SDS011;51827;51.186;6.926;2023-04-19T04:57:19;7.20;;;2.80;;
65238;SDS011;51827;51.186;6.926;2023-04-19T04:58:19;4.90;;;2.80;;
65238;SDS011;51827;51.186;6.926;2023-04-19T04:59:19;4.43;;;2.80;;
65238;SDS011;51827;51.186;6.926;2023-04-19T05:00:20;8.30;;;2.77;;
65238;SDS011;51827;51.186;6.926;2023-04-19T05:01:21;5.43;;;2.80;;
65238;SDS011;51827;51.186;6.926;2023-04-19T05:02:21;4.53;;;2.87;;
65238;SDS011;51827;51.186;6.926;2023-04-19T05:03:21;6.90;;;2.70;;
65238;SDS011;51827;51.186;6.926;2023-04-19T05:04:22;3.57;;;2.40;;
65238;SDS011;51827;51.186;6.926;2023-04-19T05:05:22;4.53;;;2.60;;
65238;SDS011;51827;51.186;6.926;2023-04-19T05:06:22;3.80;;;2.73;;
65238;SDS011;51827;51.186;6.926;2023-04-19T05:07:23;6.75;;;2.80;;
65238;SDS011;51827;51.186;6.926;2023-04-19T05:08:24;4.87;;;2.67;;
65238;SDS011;51827;51.186;6.926;2023-04-19T05:09:25;3.97;;;2.85;;
65238;SDS011;51827;51.186;6.926;2023-04-19T05:10:25;8.83;;;2.90;;
65238;SDS011;51827;51.186;6.926;2023-04-19T05:11:26;5.07;;;2.67;;
65238;SDS011;51827;51.186;6.926;2023-04-19T05:12:26;3.55;;;2.50;;
65238;SDS011;51827;51.186;6.926;2023-04-19T05:13:26;8.53;;;2.60;;
65238;SDS011;51827;51.186;6.926;2023-04-19T05:14:27;4.47;;;2.33;;
65238;SDS011;51827;51.186;6.926;2023-04-19T05:15:27;3.40;;;2.50;;
65238;SDS011;51827;51.186;6.926;2023-04-19T05:16:27;5.83;;;2.67;;
65238;SDS011;51827;51.186;6.926;2023-04-19T05:17:28;5.80;;;2.72;;
65238;SDS011;51827;51.186;6.926;2023-04-19T05:18:28;6.77;;;2.37;;
65238;SDS011;51827;51.186;6.926;2023-04-19T05:19:28;3.93;;;2.50;;
65238;SDS011;51827;51.186;6.926;2023-04-19T05:20:28;5.57;;;2.40;;
65238;SDS011;51827;51.186;6.926;2023-04-19T05:21:29;5.67;;;2.90;;
65238;SDS011;51827;51.186;6.926;2023-04-19T05:22:29;5.20;;;2.60;;
65238;SDS011;51827;51.186;6.926;2023-04-19T05:23:29;4.37;;;2.70;;
65238;SDS011;51827;51.186;6.926;2023-04-19T05:24:29;3.70;;;2.50;;
65238;SDS011;51827;51.186;6.926;2023-04-19T05:25:30;4.73;;;2.60;;
65238;SDS011;51827;51.186;6.926;2023-04-19T05:26:30;5.40;;;2.42;;
65238;SDS011;51827;51.186;6.926;2023-04-19T05:27:30;4.53;;;2.73;;
65238;SDS011;51827;51.186;6.926;2023-04-19T05:28:30;5.63;;;2.40;;
65238;SDS011;51827;51.186;6.926;2023-04-19T05:29:31;4.50;;;2.40;;
65238;SDS011;51827;51.186;6.926;2023-04-19T05:30:31;3.73;;;2.20;;
65238;SDS011;51827;51.186;6.926;2023-04-19T05:31:31;3.33;;;2.43;;
65238;SDS011;51827;51.186;6.926;2023-04-19T05:32:31;4.20;;;2.70;;
65238;SDS011;51827;51.186;6.926;2023-04-19T05:33:32;6.43;;;2.75;;
65238;SDS011;51827;51.186;6.926;2023-04-19T05:34:32;3.90;;;2.50;;
65238;SDS011;51827;51.186;6.926;2023-04-19T05:35:33;4.53;;;2.67;;
65238;SDS011;51827;51.186;6.926;2023-04-19T05:36:33;4.03;;;2.10;;
65238;SDS011;51827;51.186;6.926;2023-04-19T05:37:33;3.13;;;2.30;;
65238;SDS011;51827;51.186;6.926;2023-04-19T05:38:34;3.17;;;2.30;;
65238;SDS011;51827;51.186;6.926;2023-04-19T05:39:34;4.40;;;2.50;;
65238;SDS011;51827;51.186;6.926;2023-04-19T05:40:34;3.23;;;2.07;;
65238;SDS011;51827;51.186;6.926;2023-04-19T05:41:34;3.87;;;2.43;;
65238;SDS011;51827;51.186;6.926;2023-04-19T05:42:35;5.10;;;2.53;;
65238;SDS011;51827;51.186;6.926;2023-04-19T05:43:35;4.10;;;2.30;;
65238;SDS011;51827;51.186;6.926;2023-04-19T05:44:35;3.63;;;2.30;;
65238;SDS011;51827;51.186;6.926;2023-04-19T05:45:35;4.13;;;2.30;;
65238;SDS011;51827;51.186;6.926;2023-04-19T05:46:36;6.23;;;2.53;;
65238;SDS011;51827;51.186;6.926;2023-04-19T05:47:36;4.47;;;2.40;;
65238;SDS011;51827;51.186;6.926;2023-04-19T05:48:36;3.30;;;2.30;;
65238;SDS011;51827;51.186;6.926;2023-04-19T05:49:36;3.80;;;2.53;;
65238;SDS011;51827;51.186;6.926;2023-04-19T05:50:37;3.73;;;2.30;;
65238;SDS011;51827;51.186;6.926;2023-04-19T05:52:38;4.33;;;2.43;;
65238;SDS011;51827;51.186;6.926;2023-04-19T05:53:38;4.07;;;2.70;;
65238;SDS011;51827;51.186;6.926;2023-04-19T05:54:39;3.43;;;2.20;;
65238;SDS011;51827;51.186;6.926;2023-04-19T05:55:39;5.30;;;2.30;;
65238;SDS011;51827;51.186;6.926;2023-04-19T05:56:39;3.10;;;2.40;;
65238;SDS011;51827;51.186;6.926;2023-04-19T05:57:39;3.80;;;2.27;;
65238;SDS011;51827;51.186;6.926;2023-04-19T05:58:40;4.87;;;2.10;;
65238;SDS011;51827;51.186;6.926;2023-04-19T05:59:40;5.03;;;2.57;;
65238;SDS011;51827;51.186;6.926;2023-04-19T06:00:41;6.00;;;2.50;;
65238;SDS011;51827;51.186;6.926;2023-04-19T06:01:41;3.77;;;2.37;;
65238;SDS011;51827;51.186;6.926;2023-04-19T06:02:41;4.40;;;2.40;;
65238;SDS011;51827;51.186;6.926;2023-04-19T06:03:41;3.23;;;2.30;;
65238;SDS011;51827;51.186;6.926;2023-04-19T06:04:42;3.20;;;2.30;;
65238;SDS011;51827;51.186;6.926;2023-04-19T06:05:42;5.20;;;2.10;;